CheckWX is a tool to help pilots better visualize weather data.  It is not intended as a substitute for an official pre-flight weather briefing.

01:54:29 UTC

CYBL TAF
Campbell River Airport
Campbell River, Canada
TAF CYBL 190038Z 1901/1904 09005KT P6SM SKC RMK NXT FCST WILL BE ISSUED AT 191445Z

Mar-19@
01:00 UTC

Mar-19 @ 01:00 UTC

Mar-19@
04:00 UTC

Mar-19 @ 04:00 UTC

TAF CYBL 190038Z 1901/1904 09005KT P6SM SKC RMK NXT FCST WILL BE ISSUED AT 191445Z
Wind
  • 090° at 5 KTS
Cloud Levels
  • Clear skies